Time;durP1;ratioP1;P1;durP2;ratioP2;P2;SDS_P1;SDS_P2;PMS_P1;PMS_P2;Temp;Humidity;BMP_temperature;BMP_pressure;BME280_temperature;BME280_humidity;BME280_pressure;Samples;Min_cycle;Max_cycle;Signal;HPM_P1;HPM_P2
2021/12/06 00:00:51;;;;;;;;;2.75;2.00;;;;;;;;5039295;28;45545;-72
2021/12/06 00:03:19;;;;;;;;;3.50;2.00;;;;;;;;5048808;28;45489;-72
2021/12/06 00:05:44;;;;;;;;;4.75;2.50;;;;;;;;5037531;28;45500;-72
2021/12/06 00:08:09;;;;;;;;;2.50;2.00;;;;;;;;5038972;28;46157;-72
2021/12/06 00:10:35;;;;;;;;;2.00;2.00;;;;;;;;5042484;28;45538;-72
2021/12/06 00:13:00;;;;;;;;;3.00;3.00;;;;;;;;5041284;28;45477;-72
2021/12/06 00:15:27;;;;;;;;;2.00;2.00;;;;;;;;5042811;28;45692;-72
2021/12/06 00:17:53;;;;;;;;;3.75;2.00;;;;;;;;5047399;28;45479;-72
2021/12/06 00:20:18;;;;;;;;;3.67;3.67;;;;;;;;5042824;28;45460;-72
2021/12/06 00:22:43;;;;;;;;;1.00;1.00;;;;;;;;5047363;28;45560;-72
2021/12/06 00:25:09;;;;;;;;;1.00;1.00;;;;;;;;5037671;28;45433;-72
2021/12/06 00:27:37;;;;;;;;;1.00;1.00;;;;;;;;5037137;28;45477;-72
2021/12/06 00:30:03;;;;;;;;;5.00;2.50;;;;;;;;5042471;28;46038;-72
2021/12/06 00:32:28;;;;;;;;;1.25;1.25;;;;;;;;5043991;28;45560;-72
2021/12/06 00:34:53;;;;;;;;;2.00;2.00;;;;;;;;5042094;28;45490;-72
2021/12/06 00:37:22;;;;;;;;;2.00;2.00;;;;;;;;5035566;28;45605;-72
2021/12/06 00:39:58;;;;;;;;;7.25;3.00;;;;;;;;5037489;28;46133;-72
2021/12/06 00:42:25;;;;;;;;;3.00;2.75;;;;;;;;5038900;28;45443;-71
2021/12/06 00:44:51;;;;;;;;;2.25;1.50;;;;;;;;5042827;28;45466;-72
2021/12/06 00:47:16;;;;;;;;;2.25;2.25;;;;;;;;5041204;28;47459;-72
2021/12/06 00:49:45;;;;;;;;;3.00;3.00;;;;;;;;5049783;28;45402;-72
2021/12/06 00:52:11;;;;;;;;;5.75;2.75;;;;;;;;5044703;28;45500;-72
2021/12/06 00:54:36;;;;;;;;;3.50;1.50;;;;;;;;5042633;28;45368;-72
2021/12/06 00:57:03;;;;;;;;;4.00;1.75;;;;;;;;5037271;28;46296;-72
2021/12/06 00:59:29;;;;;;;;;4.50;2.50;;;;;;;;5038165;28;45923;-72
2021/12/06 01:01:54;;;;;;;;;3.75;3.75;;;;;;;;5038336;28;45753;-72
2021/12/06 01:04:19;;;;;;;;;6.00;3.00;;;;;;;;5040729;28;45315;-72
2021/12/06 01:06:45;;;;;;;;;2.67;2.00;;;;;;;;5051044;28;45647;-71
2021/12/06 01:09:10;;;;;;;;;5.00;2.67;;;;;;;;5039991;28;45473;-72
2021/12/06 01:11:35;;;;;;;;;5.00;3.00;;;;;;;;5041123;28;45716;-72
2021/12/06 01:14:00;;;;;;;;;3.00;2.33;;;;;;;;5048443;28;45505;-72
2021/12/06 01:16:26;;;;;;;;;5.00;5.00;;;;;;;;5042627;28;47757;-72
2021/12/06 01:18:51;;;;;;;;;7.33;3.00;;;;;;;;5040258;28;45434;-72
2021/12/06 01:21:38;;;;;;;;;2.00;2.00;;;;;;;;5038346;28;45403;-72
2021/12/06 01:24:04;;;;;;;;;2.75;2.00;;;;;;;;5037641;28;45593;-72
2021/12/06 01:29:35;;;;;;;;;3.50;3.00;;;;;;;;5045226;28;45362;-72
2021/12/06 01:39:51;;;;;;;;;4.00;3.00;;;;;;;;5047184;28;45410;-72
2021/12/06 01:42:16;;;;;;;;;2.25;1.00;;;;;;;;5041128;28;45230;-72
2021/12/06 01:44:43;;;;;;;;;2.67;2.67;;;;;;;;5037724;28;45173;-72
2021/12/06 01:47:10;;;;;;;;;2.00;1.00;;;;;;;;5029474;28;48084;-72
2021/12/06 01:49:37;;;;;;;;;2.00;2.00;;;;;;;;5029007;28;45773;-72
2021/12/06 01:52:05;;;;;;;;;6.00;2.25;;;;;;;;5039349;28;45306;-71
2021/12/06 01:54:31;;;;;;;;;2.75;2.75;;;;;;;;5038760;28;45312;-72
2021/12/06 01:56:57;;;;;;;;;2.00;2.00;;;;;;;;5037734;28;46163;-72
2021/12/06 01:59:23;;;;;;;;;3.00;3.00;;;;;;;;5039048;28;45290;-72
2021/12/06 02:01:49;;;;;;;;;2.75;2.75;;;;;;;;5043116;28;45476;-72
2021/12/06 02:04:14;;;;;;;;;9.25;5.75;;;;;;;;5031985;28;45544;-72
2021/12/06 02:06:40;;;;;;;;;5.25;2.50;;;;;;;;5037885;28;46435;-72
2021/12/06 02:09:07;;;;;;;;;6.25;2.00;;;;;;;;5044545;28;45445;-72
2021/12/06 02:11:35;;;;;;;;;5.25;2.25;;;;;;;;5045171;28;45454;-72
2021/12/06 02:14:16;;;;;;;;;4.50;3.00;;;;;;;;5042092;28;45721;-72
2021/12/06 02:17:04;;;;;;;;;2.50;2.50;;;;;;;;5024926;28;45485;-72
2021/12/06 02:19:33;;;;;;;;;11.00;2.50;;;;;;;;5057032;28;45678;-72
2021/12/06 02:22:00;;;;;;;;;4.00;2.25;;;;;;;;5044107;28;45689;-72
2021/12/06 02:24:26;;;;;;;;;5.50;2.75;;;;;;;;5038723;28;45500;-72
2021/12/06 02:26:53;;;;;;;;;5.75;2.00;;;;;;;;5040074;28;46524;-72
2021/12/06 02:29:18;;;;;;;;;5.00;5.00;;;;;;;;5037298;28;45995;-72
2021/12/06 02:31:44;;;;;;;;;6.50;4.00;;;;;;;;5037165;28;45453;-72
2021/12/06 02:34:09;;;;;;;;;6.00;3.00;;;;;;;;5042667;28;45453;-72
2021/12/06 02:36:34;;;;;;;;;5.00;3.00;;;;;;;;5049850;28;46288;-72
2021/12/06 02:39:01;;;;;;;;;3.00;3.00;;;;;;;;5036015;28;45646;-72
2021/12/06 02:41:26;;;;;;;;;5.00;3.00;;;;;;;;5041039;28;45543;-72
2021/12/06 02:43:52;;;;;;;;;5.67;2.33;;;;;;;;5045113;28;45452;-72
2021/12/06 02:46:17;;;;;;;;;3.00;3.00;;;;;;;;5033382;28;46595;-72
2021/12/06 02:48:43;;;;;;;;;3.75;2.00;;;;;;;;5044695;28;45504;-72
2021/12/06 02:51:09;;;;;;;;;3.67;3.67;;;;;;;;5038880;28;45728;-72
2021/12/06 02:53:35;;;;;;;;;4.00;3.00;;;;;;;;5039259;28;45434;-72
2021/12/06 02:56:05;;;;;;;;;2.50;2.50;;;;;;;;5043132;28;45448;-72
2021/12/06 03:01:03;;;;;;;;;3.00;1.00;;;;;;;;5045821;28;45525;-72
2021/12/06 03:03:28;;;;;;;;;2.00;2.00;;;;;;;;5038774;28;45419;-72
2021/12/06 03:05:55;;;;;;;;;6.33;2.67;;;;;;;;5036015;28;45535;-72
2021/12/06 03:08:33;;;;;;;;;1.00;1.00;;;;;;;;5035964;28;45794;-72
2021/12/06 03:10:58;;;;;;;;;2.75;2.00;;;;;;;;5068191;27;45327;-72
2021/12/06 03:13:24;;;;;;;;;4.00;3.00;;;;;;;;5037602;28;45500;-72
2021/12/06 03:15:49;;;;;;;;;2.67;2.33;;;;;;;;5048984;28;45544;-72
2021/12/06 03:18:14;;;;;;;;;2.00;2.00;;;;;;;;5035858;28;45497;-72
2021/12/06 03:20:39;;;;;;;;;5.00;3.00;;;;;;;;5034413;28;45574;-72
2021/12/06 03:23:04;;;;;;;;;6.00;5.00;;;;;;;;5037911;28;45513;-72
2021/12/06 03:25:30;;;;;;;;;2.33;2.33;;;;;;;;5040127;28;46293;-72
2021/12/06 03:27:59;;;;;;;;;5.00;3.00;;;;;;;;5036676;28;45477;-72
2021/12/06 03:30:24;;;;;;;;;5.50;3.00;;;;;;;;5050135;28;45447;-72
2021/12/06 03:32:49;;;;;;;;;8.33;5.00;;;;;;;;5040939;28;45690;-72
2021/12/06 03:35:14;;;;;;;;;3.00;3.00;;;;;;;;5045933;28;46277;-72
2021/12/06 03:37:40;;;;;;;;;6.50;4.00;;;;;;;;5045516;28;45514;-72
2021/12/06 03:40:06;;;;;;;;;3.50;2.25;;;;;;;;5029116;28;45635;-72
2021/12/06 03:42:31;;;;;;;;;3.75;2.25;;;;;;;;5031357;28;45532;-72
2021/12/06 03:44:56;;;;;;;;;5.00;5.00;;;;;;;;5047096;28;46088;-72
2021/12/06 03:47:23;;;;;;;;;7.67;5.00;;;;;;;;5057164;28;45350;-72
2021/12/06 03:49:48;;;;;;;;;4.75;3.00;;;;;;;;5047423;28;45495;-72
2021/12/06 03:52:14;;;;;;;;;11.33;8.00;;;;;;;;5042267;28;45414;-72
2021/12/06 03:54:39;;;;;;;;;5.67;5.67;;;;;;;;5040749;28;45542;-72
2021/12/06 03:57:04;;;;;;;;;4.75;3.00;;;;;;;;5037201;28;45515;-72
2021/12/06 03:59:30;;;;;;;;;5.50;4.50;;;;;;;;5033114;28;45529;-72
2021/12/06 04:01:55;;;;;;;;;6.50;6.00;;;;;;;;5038484;28;45425;-72
2021/12/06 04:04:21;;;;;;;;;10.00;4.00;;;;;;;;5046075;28;46648;-72
2021/12/06 04:06:46;;;;;;;;;8.75;6.00;;;;;;;;5037745;28;45456;-72
2021/12/06 04:09:12;;;;;;;;;3.50;3.50;;;;;;;;5045096;28;45416;-72
2021/12/06 04:11:37;;;;;;;;;6.75;5.50;;;;;;;;5049805;28;45323;-72
2021/12/06 04:14:03;;;;;;;;;9.50;5.75;;;;;;;;5046878;28;46065;-72
2021/12/06 04:16:29;;;;;;;;;8.50;6.25;;;;;;;;5026034;28;46179;-72
2021/12/06 04:18:54;;;;;;;;;6.00;6.00;;;;;;;;5035834;28;45300;-72
2021/12/06 04:21:20;;;;;;;;;7.67;6.33;;;;;;;;5045558;28;45369;-72
2021/12/06 04:23:45;;;;;;;;;6.50;5.25;;;;;;;;5039473;28;45549;-72
2021/12/06 04:26:11;;;;;;;;;6.00;3.67;;;;;;;;5038509;28;45475;-72
2021/12/06 04:28:37;;;;;;;;;6.25;6.00;;;;;;;;5044865;28;45436;-72
2021/12/06 04:31:03;;;;;;;;;6.50;5.00;;;;;;;;5051748;28;45264;-72
2021/12/06 04:33:28;;;;;;;;;5.75;5.75;;;;;;;;5037182;28;46397;-72
2021/12/06 04:35:53;;;;;;;;;7.33;6.00;;;;;;;;5036934;28;45443;-72
2021/12/06 04:38:19;;;;;;;;;10.00;5.75;;;;;;;;5047294;28;45496;-72
2021/12/06 04:40:44;;;;;;;;;7.50;5.00;;;;;;;;5041860;28;45546;-72
2021/12/06 04:43:10;;;;;;;;;7.25;5.00;;;;;;;;5044501;28;47339;-72
2021/12/06 04:45:36;;;;;;;;;13.50;7.00;;;;;;;;5047870;28;45527;-72
2021/12/06 04:48:01;;;;;;;;;9.50;6.00;;;;;;;;5036118;28;45518;-72
2021/12/06 04:50:30;;;;;;;;;7.75;7.00;;;;;;;;5035412;28;45541;-72
2021/12/06 04:52:57;;;;;;;;;7.25;6.00;;;;;;;;5041316;28;48296;-72
2021/12/06 04:55:29;;;;;;;;;4.25;3.00;;;;;;;;5049213;28;45952;-72
2021/12/06 04:57:55;;;;;;;;;12.25;6.50;;;;;;;;5036829;28;45311;-72
2021/12/06 05:00:24;;;;;;;;;5.75;4.00;;;;;;;;5040410;28;45382;-72
2021/12/06 05:02:49;;;;;;;;;6.75;5.50;;;;;;;;5038803;28;46466;-72
2021/12/06 05:05:18;;;;;;;;;5.25;5.00;;;;;;;;5040030;28;45403;-72
2021/12/06 05:07:48;;;;;;;;;7.00;5.00;;;;;;;;5038276;28;45398;-72
2021/12/06 05:10:14;;;;;;;;;8.25;6.00;;;;;;;;5038730;28;45409;-72
2021/12/06 05:12:39;;;;;;;;;6.00;6.00;;;;;;;;5054212;28;46431;-72
2021/12/06 05:15:06;;;;;;;;;7.67;5.00;;;;;;;;5045502;28;45593;-72
2021/12/06 05:17:31;;;;;;;;;5.25;5.00;;;;;;;;5042390;28;45403;-72
2021/12/06 05:19:57;;;;;;;;;6.25;5.50;;;;;;;;5037801;28;45581;-72
2021/12/06 05:22:24;;;;;;;;;6.75;6.75;;;;;;;;5039408;28;46206;-72
2021/12/06 05:24:49;;;;;;;;;9.50;6.25;;;;;;;;5037078;28;46153;-72
2021/12/06 05:27:15;;;;;;;;;3.50;3.50;;;;;;;;5043922;28;45377;-72
2021/12/06 05:29:45;;;;;;;;;8.75;5.00;;;;;;;;5037696;28;45388;-72
2021/12/06 05:32:10;;;;;;;;;8.25;6.25;;;;;;;;5037735;28;45846;-72
2021/12/06 05:34:38;;;;;;;;;8.50;7.00;;;;;;;;5037229;28;45422;-72
2021/12/06 05:37:05;;;;;;;;;7.25;6.00;;;;;;;;5042176;28;45632;-72
2021/12/06 05:39:30;;;;;;;;;7.25;5.00;;;;;;;;5039317;28;45296;-72
2021/12/06 05:42:26;;;;;;;;;11.75;7.25;;;;;;;;5037431;28;45537;-72
2021/12/06 05:44:51;;;;;;;;;13.00;9.75;;;;;;;;5016023;28;45298;-72
2021/12/06 05:47:16;;;;;;;;;8.00;6.25;;;;;;;;5037778;28;45503;-72
2021/12/06 05:49:42;;;;;;;;;6.00;5.33;;;;;;;;5041837;28;45431;-72
2021/12/06 05:52:07;;;;;;;;;10.75;6.75;;;;;;;;5017153;28;45459;-72
2021/12/06 05:54:33;;;;;;;;;9.00;6.50;;;;;;;;5039791;28;46029;-72
2021/12/06 05:56:59;;;;;;;;;7.75;7.00;;;;;;;;5037435;28;45546;-72
2021/12/06 05:59:25;;;;;;;;;7.33;6.00;;;;;;;;5039608;28;45451;-72
2021/12/06 06:01:53;;;;;;;;;7.50;7.50;;;;;;;;5033609;28;46326;-72
2021/12/06 06:04:19;;;;;;;;;7.00;5.00;;;;;;;;5035467;28;45471;-72
2021/12/06 06:06:44;;;;;;;;;9.75;9.50;;;;;;;;5044615;28;45522;-72
2021/12/06 06:09:09;;;;;;;;;9.00;7.00;;;;;;;;5039268;28;45401;-72
2021/12/06 06:11:35;;;;;;;;;11.50;6.25;;;;;;;;5037052;28;45530;-71
2021/12/06 06:14:03;;;;;;;;;12.00;10.00;;;;;;;;5036928;28;45414;-71
2021/12/06 06:16:32;;;;;;;;;5.75;5.75;;;;;;;;5033269;28;45869;-72
2021/12/06 06:18:57;;;;;;;;;10.50;7.50;;;;;;;;5034039;28;45590;-71
2021/12/06 06:21:23;;;;;;;;;7.00;5.00;;;;;;;;5034664;28;47057;-71
2021/12/06 06:23:48;;;;;;;;;12.00;7.00;;;;;;;;5036994;28;45404;-72
2021/12/06 06:26:13;;;;;;;;;6.00;5.67;;;;;;;;5039260;28;45597;-72
2021/12/06 06:28:38;;;;;;;;;4.33;2.00;;;;;;;;5048674;28;45501;-72
2021/12/06 06:31:04;;;;;;;;;8.00;5.00;;;;;;;;5032909;28;46480;-71
2021/12/06 06:33:29;;;;;;;;;6.50;3.00;;;;;;;;5038100;28;46375;-72
2021/12/06 06:35:55;;;;;;;;;10.33;6.00;;;;;;;;5038858;28;45374;-72
2021/12/06 06:38:20;;;;;;;;;7.00;6.25;;;;;;;;5039489;28;45586;-72
2021/12/06 06:40:46;;;;;;;;;6.25;4.00;;;;;;;;5047479;28;45621;-72
2021/12/06 06:43:11;;;;;;;;;7.50;6.00;;;;;;;;5041303;28;45589;-72
2021/12/06 06:45:36;;;;;;;;;8.33;7.00;;;;;;;;5050726;28;45484;-72
2021/12/06 06:48:02;;;;;;;;;7.00;6.00;;;;;;;;5036624;28;45467;-72
2021/12/06 06:50:27;;;;;;;;;5.75;5.75;;;;;;;;5036176;28;45363;-72
2021/12/06 06:52:53;;;;;;;;;11.50;8.50;;;;;;;;5035406;28;45416;-72
2021/12/06 06:55:18;;;;;;;;;12.75;8.50;;;;;;;;5032983;28;45446;-72
2021/12/06 06:57:44;;;;;;;;;9.00;6.00;;;;;;;;5049569;28;45453;-72
2021/12/06 07:00:11;;;;;;;;;11.50;7.00;;;;;;;;5048285;28;45486;-72
2021/12/06 07:02:37;;;;;;;;;10.75;9.25;;;;;;;;5045200;28;45515;-72
2021/12/06 07:05:03;;;;;;;;;12.75;11.50;;;;;;;;5038832;28;45500;-72
2021/12/06 07:07:28;;;;;;;;;15.00;10.50;;;;;;;;5037968;28;45394;-72
2021/12/06 07:09:53;;;;;;;;;8.67;8.67;;;;;;;;5038497;28;45552;-71
2021/12/06 07:12:19;;;;;;;;;10.00;9.00;;;;;;;;5048152;28;45380;-72
2021/12/06 07:14:45;;;;;;;;;10.50;9.50;;;;;;;;5043159;28;45406;-72
2021/12/06 07:17:11;;;;;;;;;9.00;8.75;;;;;;;;5040844;28;45514;-72
2021/12/06 07:19:36;;;;;;;;;6.50;5.00;;;;;;;;5047638;28;45566;-73
2021/12/06 07:22:02;;;;;;;;;6.00;5.75;;;;;;;;5035379;28;45315;-72
2021/12/06 07:24:27;;;;;;;;;8.75;6.75;;;;;;;;5041777;28;45363;-73
2021/12/06 07:26:53;;;;;;;;;7.67;7.33;;;;;;;;5033737;28;45552;-70
2021/12/06 07:29:18;;;;;;;;;11.75;9.25;;;;;;;;5039258;28;46148;-72
2021/12/06 07:31:43;;;;;;;;;7.67;7.33;;;;;;;;5045872;28;45509;-72
2021/12/06 07:34:08;;;;;;;;;13.33;10.33;;;;;;;;5048575;28;45737;-72
2021/12/06 07:36:33;;;;;;;;;7.00;7.00;;;;;;;;5039529;28;45448;-72
2021/12/06 07:38:59;;;;;;;;;6.75;6.75;;;;;;;;5040507;28;46144;-72
2021/12/06 07:41:28;;;;;;;;;7.00;7.00;;;;;;;;5038844;28;45313;-72
2021/12/06 07:43:54;;;;;;;;;12.50;10.50;;;;;;;;5039499;28;45307;-72
2021/12/06 07:46:20;;;;;;;;;20.00;16.00;;;;;;;;5036448;28;45620;-72
2021/12/06 07:48:49;;;;;;;;;14.75;9.00;;;;;;;;5039119;28;46089;-72
2021/12/06 07:51:14;;;;;;;;;12.25;12.25;;;;;;;;5040617;28;45511;-72
2021/12/06 07:53:40;;;;;;;;;13.00;11.00;;;;;;;;5046161;28;45533;-72
2021/12/06 07:56:05;;;;;;;;;12.25;10.00;;;;;;;;5046651;28;45486;-72
2021/12/06 07:58:30;;;;;;;;;16.00;11.00;;;;;;;;5035424;28;47126;-73
2021/12/06 08:00:55;;;;;;;;;14.00;9.00;;;;;;;;5042774;28;45463;-72
2021/12/06 08:03:22;;;;;;;;;17.67;11.67;;;;;;;;5037967;28;45569;-72
2021/12/06 08:05:49;;;;;;;;;18.00;16.25;;;;;;;;5039085;28;45376;-72
2021/12/06 08:08:23;;;;;;;;;20.25;12.00;;;;;;;;5041358;28;45342;-72
2021/12/06 08:10:50;;;;;;;;;11.00;9.75;;;;;;;;5035598;28;45511;-75
2021/12/06 08:13:17;;;;;;;;;12.50;9.50;;;;;;;;5046202;28;45553;-72
2021/12/06 08:15:43;;;;;;;;;12.00;9.25;;;;;;;;5051383;28;45377;-72
2021/12/06 08:18:09;;;;;;;;;11.50;11.50;;;;;;;;5032646;28;46033;-72
2021/12/06 08:20:35;;;;;;;;;14.50;12.25;;;;;;;;5039096;28;45564;-72
2021/12/06 08:23:00;;;;;;;;;12.00;10.00;;;;;;;;5054967;28;45265;-72
2021/12/06 08:25:25;;;;;;;;;12.33;10.67;;;;;;;;5062256;28;45380;-72
2021/12/06 08:27:51;;;;;;;;;12.67;10.33;;;;;;;;5038633;28;45728;-72
2021/12/06 08:30:21;;;;;;;;;16.00;11.25;;;;;;;;5035631;28;45708;-72
2021/12/06 08:32:48;;;;;;;;;13.50;10.25;;;;;;;;5040640;28;45483;-72
2021/12/06 08:35:13;;;;;;;;;11.75;10.25;;;;;;;;5039603;28;45414;-72
2021/12/06 08:37:38;;;;;;;;;9.00;7.00;;;;;;;;5040698;28;46338;-72
2021/12/06 08:40:04;;;;;;;;;9.00;9.00;;;;;;;;5032736;28;45460;-72
2021/12/06 08:42:29;;;;;;;;;7.50;6.25;;;;;;;;5044392;28;45647;-72
2021/12/06 08:44:55;;;;;;;;;10.50;7.75;;;;;;;;5044016;28;45566;-72
2021/12/06 08:47:20;;;;;;;;;12.33;11.00;;;;;;;;5035976;28;46344;-72
2021/12/06 08:49:45;;;;;;;;;10.00;8.00;;;;;;;;5032946;28;45423;-72
2021/12/06 08:52:10;;;;;;;;;10.00;8.50;;;;;;;;5023423;28;45403;-72
2021/12/06 08:54:36;;;;;;;;;10.33;8.67;;;;;;;;5040202;28;45458;-73
2021/12/06 08:57:02;;;;;;;;;10.67;9.33;;;;;;;;5037400;28;46147;-72
2021/12/06 08:59:27;;;;;;;;;10.75;9.00;;;;;;;;5037244;28;45533;-73
2021/12/06 09:01:54;;;;;;;;;10.00;8.33;;;;;;;;5038362;28;45474;-73
2021/12/06 09:04:19;;;;;;;;;12.00;9.25;;;;;;;;5035426;28;45310;-73
2021/12/06 09:06:46;;;;;;;;;17.33;13.00;;;;;;;;5037377;28;46011;-73
2021/12/06 09:09:12;;;;;;;;;11.75;10.00;;;;;;;;5038422;28;45699;-72
2021/12/06 09:11:38;;;;;;;;;9.25;9.25;;;;;;;;5038412;28;45438;-72
2021/12/06 09:14:04;;;;;;;;;15.50;12.50;;;;;;;;5036830;28;45622;-73
2021/12/06 09:16:29;;;;;;;;;19.25;14.25;;;;;;;;5034783;28;48358;-73
2021/12/06 09:18:55;;;;;;;;;17.67;14.67;;;;;;;;5035388;28;45477;-73
2021/12/06 09:21:21;;;;;;;;;15.75;13.25;;;;;;;;5040483;28;45505;-73
2021/12/06 09:23:47;;;;;;;;;16.75;13.00;;;;;;;;5037272;28;47828;-73
2021/12/06 09:26:13;;;;;;;;;14.25;12.50;;;;;;;;5038104;28;46152;-73
2021/12/06 09:28:40;;;;;;;;;14.25;12.25;;;;;;;;5037496;28;45758;-73
2021/12/06 09:31:05;;;;;;;;;13.25;12.75;;;;;;;;5035600;28;45462;-73
2021/12/06 09:33:32;;;;;;;;;18.00;11.75;;;;;;;;5040352;28;45636;-73
2021/12/06 09:35:59;;;;;;;;;17.75;11.25;;;;;;;;5037897;28;45426;-73
2021/12/06 09:38:28;;;;;;;;;13.25;11.75;;;;;;;;5037432;28;45871;-73
2021/12/06 09:40:54;;;;;;;;;11.50;10.00;;;;;;;;5037836;28;45571;-72
2021/12/06 09:43:20;;;;;;;;;13.50;11.75;;;;;;;;5034772;28;45360;-73
2021/12/06 09:45:46;;;;;;;;;13.50;12.25;;;;;;;;5037826;28;45556;-73
2021/12/06 09:48:12;;;;;;;;;19.50;16.00;;;;;;;;5038221;28;45406;-73
2021/12/06 09:50:40;;;;;;;;;16.25;15.50;;;;;;;;5038165;28;45536;-72
2021/12/06 09:53:07;;;;;;;;;14.00;13.00;;;;;;;;5037395;28;45541;-73
2021/12/06 09:55:33;;;;;;;;;22.00;17.75;;;;;;;;5036141;28;48283;-72
2021/12/06 09:57:59;;;;;;;;;18.25;15.50;;;;;;;;5034777;28;45745;-72
2021/12/06 10:00:26;;;;;;;;;18.25;13.50;;;;;;;;5038051;28;45463;-72
2021/12/06 10:02:52;;;;;;;;;10.75;10.50;;;;;;;;5038001;28;45476;-72
2021/12/06 10:05:17;;;;;;;;;21.00;18.00;;;;;;;;5037245;28;45362;-73
2021/12/06 10:07:43;;;;;;;;;26.00;25.25;;;;;;;;5039269;28;45485;-72
2021/12/06 10:10:10;;;;;;;;;19.00;17.67;;;;;;;;5033074;28;45351;-72
2021/12/06 10:12:36;;;;;;;;;18.50;15.50;;;;;;;;5039707;28;45524;-73
2021/12/06 10:15:03;;;;;;;;;19.00;17.00;;;;;;;;5037186;28;45374;-73
2021/12/06 10:17:28;;;;;;;;;18.50;17.50;;;;;;;;5037371;28;45716;-72
2021/12/06 10:19:54;;;;;;;;;17.00;16.00;;;;;;;;5037151;28;45383;-73
2021/12/06 10:22:19;;;;;;;;;23.25;17.00;;;;;;;;5033834;28;45466;-73
2021/12/06 10:24:52;;;;;;;;;20.25;17.00;;;;;;;;5037293;28;45955;-72
2021/12/06 10:27:17;;;;;;;;;20.00;14.25;;;;;;;;5039200;28;45988;-72
2021/12/06 10:29:47;;;;;;;;;21.75;17.25;;;;;;;;5037441;28;45593;-72
2021/12/06 10:32:17;;;;;;;;;17.25;15.00;;;;;;;;5037129;28;45454;-72
2021/12/06 10:34:50;;;;;;;;;11.00;11.00;;;;;;;;5036190;28;45503;-72
2021/12/06 10:37:32;;;;;;;;;16.00;11.00;;;;;;;;5024225;28;46462;-72
2021/12/06 10:39:58;;;;;;;;;16.75;14.25;;;;;;;;5034646;28;45578;-72
2021/12/06 10:42:30;;;;;;;;;10.75;10.00;;;;;;;;5037369;28;45395;-73
2021/12/06 10:44:59;;;;;;;;;8.75;8.00;;;;;;;;5037133;28;45494;-72
2021/12/06 10:47:25;;;;;;;;;15.50;13.50;;;;;;;;5036929;28;45953;-73
2021/12/06 10:49:50;;;;;;;;;11.50;10.50;;;;;;;;5036550;28;45401;-72
2021/12/06 10:52:31;;;;;;;;;15.33;9.00;;;;;;;;5033520;28;45387;-73
2021/12/06 10:54:56;;;;;;;;;12.00;8.75;;;;;;;;5034266;28;45450;-73
2021/12/06 10:57:22;;;;;;;;;9.33;7.33;;;;;;;;5052538;28;45464;-72
2021/12/06 10:59:47;;;;;;;;;11.50;9.00;;;;;;;;5039414;28;45432;-72
2021/12/06 11:02:13;;;;;;;;;12.00;10.00;;;;;;;;5035680;28;45398;-72
2021/12/06 11:04:39;;;;;;;;;9.00;8.50;;;;;;;;5035568;28;45463;-72
2021/12/06 11:07:08;;;;;;;;;9.75;8.50;;;;;;;;5037926;28;45767;-72
2021/12/06 11:09:37;;;;;;;;;8.50;8.00;;;;;;;;5038716;28;45317;-73
2021/12/06 11:12:04;;;;;;;;;8.75;8.25;;;;;;;;5036766;28;45533;-73
2021/12/06 11:14:32;;;;;;;;;12.00;9.00;;;;;;;;5036316;28;45405;-73
2021/12/06 11:17:04;;;;;;;;;9.00;8.25;;;;;;;;5036091;28;45931;-72
2021/12/06 11:19:31;;;;;;;;;8.50;8.00;;;;;;;;5034416;28;45484;-72
2021/12/06 11:21:58;;;;;;;;;12.75;9.50;;;;;;;;5033852;28;45422;-73
2021/12/06 11:24:28;;;;;;;;;9.00;8.25;;;;;;;;5037704;28;46309;-72
2021/12/06 11:27:05;;;;;;;;;6.25;5.25;;;;;;;;5036636;28;45387;-72
2021/12/06 11:29:33;;;;;;;;;9.50;9.00;;;;;;;;5036676;28;45410;-72
2021/12/06 11:32:04;;;;;;;;;13.00;8.25;;;;;;;;5036566;28;45310;-72
2021/12/06 11:34:48;;;;;;;;;7.75;4.00;;;;;;;;5034066;28;46051;-72
2021/12/06 11:37:20;;;;;;;;;8.50;8.00;;;;;;;;5024816;28;45513;-72
2021/12/06 11:39:47;;;;;;;;;10.50;9.00;;;;;;;;5036532;28;45357;-73
2021/12/06 11:42:13;;;;;;;;;5.25;5.00;;;;;;;;5037299;28;45464;-71
2021/12/06 11:44:43;;;;;;;;;12.25;9.00;;;;;;;;5035341;28;46224;-72
2021/12/06 11:47:13;;;;;;;;;9.00;6.00;;;;;;;;5043647;28;45318;-72
2021/12/06 11:49:47;;;;;;;;;8.50;8.25;;;;;;;;5050802;28;45579;-72
2021/12/06 11:52:38;;;;;;;;;9.75;8.00;;;;;;;;5028747;28;45334;-72
2021/12/06 11:55:09;;;;;;;;;12.25;11.25;;;;;;;;5017421;28;45465;-72
2021/12/06 11:57:43;;;;;;;;;12.50;10.00;;;;;;;;5040391;28;45375;-72
2021/12/06 12:00:16;;;;;;;;;9.25;9.25;;;;;;;;5039993;28;45537;-72
2021/12/06 12:02:43;;;;;;;;;9.00;9.00;;;;;;;;5039041;28;45340;-72
2021/12/06 12:05:20;;;;;;;;;11.00;10.50;;;;;;;;5039681;28;46192;-72
2021/12/06 12:08:18;;;;;;;;;11.50;11.50;;;;;;;;5039500;28;45822;-72
2021/12/06 12:10:54;;;;;;;;;13.75;12.00;;;;;;;;4954849;28;45504;-72
2021/12/06 12:13:36;;;;;;;;;10.75;8.00;;;;;;;;4938696;28;45461;-72
2021/12/06 12:16:04;;;;;;;;;13.00;10.00;;;;;;;;4939229;28;46987;-72
2021/12/06 12:18:30;;;;;;;;;10.00;9.25;;;;;;;;4955005;28;45492;-72
2021/12/06 12:20:56;;;;;;;;;9.50;8.25;;;;;;;;4954738;28;45500;-72
2021/12/06 12:23:22;;;;;;;;;12.50;9.00;;;;;;;;4954945;28;47960;-72
2021/12/06 12:26:02;;;;;;;;;7.00;4.00;;;;;;;;4962996;28;46521;-73
2021/12/06 12:28:37;;;;;;;;;9.00;9.00;;;;;;;;4954949;28;45957;-72
2021/12/06 12:31:04;;;;;;;;;7.00;7.00;;;;;;;;4954897;28;45581;-72
2021/12/06 12:33:29;;;;;;;;;10.75;5.00;;;;;;;;4955165;28;45441;-72
2021/12/06 12:36:01;;;;;;;;;8.75;8.00;;;;;;;;4954434;28;45453;-72
2021/12/06 12:38:29;;;;;;;;;8.00;7.25;;;;;;;;4938244;28;45923;-72
2021/12/06 12:40:59;;;;;;;;;9.75;8.00;;;;;;;;4954742;28;45406;-72
2021/12/06 12:43:26;;;;;;;;;7.00;7.00;;;;;;;;4938615;28;45465;-72
2021/12/06 12:45:56;;;;;;;;;9.50;8.00;;;;;;;;4977816;28;46173;-72
2021/12/06 12:48:25;;;;;;;;;8.00;6.75;;;;;;;;5044082;28;45686;-72
2021/12/06 12:51:20;;;;;;;;;8.50;7.75;;;;;;;;5041026;28;45480;-72
2021/12/06 12:53:48;;;;;;;;;8.00;7.25;;;;;;;;5022871;28;45462;-72
2021/12/06 12:56:18;;;;;;;;;9.00;7.00;;;;;;;;5040059;28;45644;-72
2021/12/06 12:58:43;;;;;;;;;7.00;4.50;;;;;;;;5044621;28;45508;-72
2021/12/06 13:01:09;;;;;;;;;7.33;7.00;;;;;;;;5049822;28;45326;-72
2021/12/06 13:03:38;;;;;;;;;8.25;6.75;;;;;;;;5070425;28;44836;-72
2021/12/06 13:06:18;;;;;;;;;9.00;3.00;;;;;;;;5042412;28;45435;-72
2021/12/06 13:08:44;;;;;;;;;9.00;6.50;;;;;;;;5038369;28;45790;-72
2021/12/06 13:11:09;;;;;;;;;4.00;3.00;;;;;;;;5038413;28;45552;-72
2021/12/06 13:13:47;;;;;;;;;6.50;6.50;;;;;;;;5037630;28;45466;-72
2021/12/06 13:16:36;;;;;;;;;6.50;6.50;;;;;;;;5049360;28;46240;-72
2021/12/06 13:19:09;;;;;;;;;6.50;5.50;;;;;;;;5034975;28;45268;-72
2021/12/06 13:21:56;;;;;;;;;6.50;4.50;;;;;;;;5040476;28;45275;-72
2021/12/06 13:24:21;;;;;;;;;9.00;6.75;;;;;;;;5038479;28;45344;-72
2021/12/06 13:26:55;;;;;;;;;6.67;6.00;;;;;;;;5043319;28;46300;-72
2021/12/06 13:29:39;;;;;;;;;4.25;4.25;;;;;;;;5043796;28;45776;-72
2021/12/06 13:32:23;;;;;;;;;7.00;4.50;;;;;;;;5038656;28;45419;-72
2021/12/06 13:34:53;;;;;;;;;11.25;4.50;;;;;;;;5038191;28;45758;-72
2021/12/06 13:37:24;;;;;;;;;7.50;6.25;;;;;;;;5031970;28;45558;-72
2021/12/06 13:39:49;;;;;;;;;4.00;3.00;;;;;;;;5036500;28;45426;-72
2021/12/06 13:42:34;;;;;;;;;4.00;4.00;;;;;;;;5039324;28;45363;-72
2021/12/06 13:45:01;;;;;;;;;6.50;4.50;;;;;;;;5036650;28;45688;-72
2021/12/06 13:47:27;;;;;;;;;5.50;3.25;;;;;;;;5037530;28;46037;-72
2021/12/06 13:49:52;;;;;;;;;3.00;3.00;;;;;;;;5037804;28;46062;-72
2021/12/06 13:52:31;;;;;;;;;5.00;3.00;;;;;;;;5035055;28;45443;-72
2021/12/06 13:54:56;;;;;;;;;3.75;2.50;;;;;;;;5034742;28;45470;-72
2021/12/06 13:57:21;;;;;;;;;3.00;2.00;;;;;;;;5038287;28;47173;-72
2021/12/06 13:59:54;;;;;;;;;6.00;6.00;;;;;;;;5037065;28;45475;-72
2021/12/06 14:02:24;;;;;;;;;6.25;3.75;;;;;;;;5037802;28;45476;-72
2021/12/06 14:04:50;;;;;;;;;6.00;4.25;;;;;;;;5037453;28;45373;-72
2021/12/06 14:07:19;;;;;;;;;4.50;4.00;;;;;;;;5033697;28;46523;-72
2021/12/06 14:09:47;;;;;;;;;4.75;3.25;;;;;;;;5036522;28;45418;-72
2021/12/06 14:12:17;;;;;;;;;3.75;2.25;;;;;;;;5038959;28;45561;-72
2021/12/06 14:14:42;;;;;;;;;3.00;3.00;;;;;;;;5037844;28;45357;-72
2021/12/06 14:17:10;;;;;;;;;7.25;6.00;;;;;;;;5040610;28;45457;-72
2021/12/06 14:19:36;;;;;;;;;5.75;5.00;;;;;;;;5048875;28;45890;-72
2021/12/06 14:22:03;;;;;;;;;5.00;5.00;;;;;;;;5033877;28;45366;-72
2021/12/06 14:24:29;;;;;;;;;6.75;2.75;;;;;;;;5039322;28;45465;-72
2021/12/06 14:26:55;;;;;;;;;3.00;3.00;;;;;;;;5037208;28;45438;-72
2021/12/06 14:29:23;;;;;;;;;2.75;2.75;;;;;;;;5036865;28;45406;-72
2021/12/06 14:31:51;;;;;;;;;2.00;2.00;;;;;;;;5037838;28;45450;-72
2021/12/06 14:34:16;;;;;;;;;6.00;5.50;;;;;;;;5033738;28;45403;-72
2021/12/06 14:36:44;;;;;;;;;5.50;2.75;;;;;;;;5037563;28;46619;-72
2021/12/06 14:39:11;;;;;;;;;7.00;3.75;;;;;;;;5037954;28;45268;-72
2021/12/06 14:41:48;;;;;;;;;6.75;3.00;;;;;;;;5036649;28;45295;-72
2021/12/06 14:44:27;;;;;;;;;3.25;2.75;;;;;;;;5037245;28;45520;-72
2021/12/06 14:46:53;;;;;;;;;3.00;2.25;;;;;;;;5038981;28;47137;-73
2021/12/06 14:49:19;;;;;;;;;3.00;3.00;;;;;;;;5048310;28;45458;-72
2021/12/06 14:51:44;;;;;;;;;6.00;3.00;;;;;;;;5036974;28;45430;-72